Webcam Flughafen St.Gallen-Altenrhein

Live-Bilder und Zeitraffer LSZR / ACH.

 

Live aus Altenrhein
LIVE
LSZR 050120Z AUTO 29010KT 8000 -RA BKN034 03/02 Q0992 REDZ
Zeitraffer heute
2020-12-05 00:14:41
LSZR 042250Z AUTO VRB02KT 9999 FEW050 SCT060 BKN070 03/01 Q0991